Terminal Aerodrome Forecast
Issued by NWS Albany, NY

Home | Current Version | Previous Version | Text Only | Print | Product List | Glossary On
Versions: 1 2 3 4 5 6 7 8 9 10 11 12 13 14 15 16 17
407
FTUS41 KALY 081733
TAFGFL
TAF
KGFL 081733Z 0818/0918 05008KT P6SM BKN100
     FM082100 04007KT P6SM VCSH SCT025 BKN050 OVC080
      TEMPO 0821/0824 3SM -SN BKN025
     FM090000 VRB03KT P6SM VCSH SCT025 BKN080
     FM091200 VRB03KT P6SM OVC025=

USA.gov is the U.S. government's official web portal to all federal, state and local government web resources and services.